createdAt,value
2023-07-16T00:05:47.169Z,21.70
2023-07-16T00:11:41.583Z,21.90
2023-07-16T00:17:36.705Z,21.40
2023-07-16T00:23:29.832Z,21.40
2023-07-16T00:29:24.747Z,21.40
2023-07-16T00:35:19.825Z,21.50
2023-07-16T00:41:13.305Z,21.40
2023-07-16T00:47:08.175Z,21.40
2023-07-16T00:53:02.408Z,21.20
2023-07-16T00:58:55.879Z,21.00
2023-07-16T01:04:50.412Z,21.20
2023-07-16T01:10:44.923Z,21.30
2023-07-16T01:16:38.419Z,21.60
2023-07-16T01:23:01.841Z,21.20
2023-07-16T01:29:30.049Z,21.30
2023-07-16T01:35:24.016Z,21.40
2023-07-16T01:41:17.489Z,21.50
2023-07-16T01:47:14.262Z,21.50
2023-07-16T01:53:07.768Z,21.30
2023-07-16T01:59:01.214Z,21.20
2023-07-16T02:04:56.025Z,21.10
2023-07-16T02:10:50.684Z,20.90
2023-07-16T02:16:44.485Z,20.90
2023-07-16T02:22:40.375Z,21.10
2023-07-16T02:28:34.489Z,20.90
2023-07-16T02:34:27.928Z,20.80
2023-07-16T02:40:22.949Z,20.70
2023-07-16T02:46:17.110Z,20.80
2023-07-16T02:52:10.825Z,20.70
2023-07-16T02:58:06.082Z,20.70
2023-07-16T03:04:00.790Z,20.60
2023-07-16T03:09:54.336Z,20.70
2023-07-16T03:15:50.261Z,20.30
2023-07-16T03:21:43.416Z,20.40
2023-07-16T03:27:37.384Z,20.40
2023-07-16T03:33:32.421Z,20.20
2023-07-16T03:39:25.638Z,20.20
2023-07-16T03:45:21.749Z,20.20
2023-07-16T03:51:16.831Z,20.30
2023-07-16T03:57:10.286Z,20.30
2023-07-16T04:03:03.970Z,20.10
2023-07-16T04:08:58.885Z,20.00
2023-07-16T04:14:57.479Z,19.90
2023-07-16T04:20:51.143Z,19.90
2023-07-16T04:26:46.008Z,20.00
2023-07-16T04:32:39.247Z,20.00
2023-07-16T04:38:32.304Z,20.00
2023-07-16T04:44:27.217Z,19.70
2023-07-16T04:50:20.381Z,19.80
2023-07-16T04:56:15.114Z,19.70
2023-07-16T05:02:10.593Z,19.70
2023-07-16T05:08:04.279Z,19.80
2023-07-16T05:13:58.422Z,19.80
2023-07-16T05:19:53.253Z,19.70
2023-07-16T05:25:50.107Z,19.80
2023-07-16T05:31:45.929Z,19.80
2023-07-16T05:37:40.845Z,19.90
2023-07-16T05:43:34.324Z,19.90
2023-07-16T05:49:28.583Z,20.00
2023-07-16T05:55:23.653Z,19.90
2023-07-16T06:01:17.139Z,19.90
2023-07-16T06:07:11.462Z,20.10
2023-07-16T06:13:05.835Z,20.20
2023-07-16T06:18:59.390Z,20.10
2023-07-16T06:24:52.451Z,20.10
2023-07-16T06:30:47.329Z,20.20
2023-07-16T06:36:41.234Z,20.30
2023-07-16T06:42:34.698Z,20.40
2023-07-16T06:48:29.519Z,20.50
2023-07-16T06:54:22.999Z,20.60
2023-07-16T07:00:16.347Z,20.60
2023-07-16T07:06:12.062Z,20.70
2023-07-16T07:12:05.833Z,20.70
2023-07-16T07:17:59.419Z,20.80
2023-07-16T07:23:53.899Z,20.90
2023-07-16T07:29:47.927Z,20.90
2023-07-16T07:35:41.377Z,20.80
2023-07-16T07:41:37.389Z,20.90
2023-07-16T07:47:30.924Z,21.10
2023-07-16T07:53:24.459Z,21.20
2023-07-16T07:59:19.485Z,21.20
2023-07-16T08:05:13.192Z,21.20
2023-07-16T08:11:06.793Z,21.30
2023-07-16T08:17:01.755Z,21.40
2023-07-16T08:22:54.995Z,21.50
2023-07-16T08:28:48.728Z,21.50
2023-07-16T08:34:43.361Z,21.60
2023-07-16T08:40:36.762Z,21.60
2023-07-16T08:46:30.571Z,21.80
2023-07-16T08:52:28.627Z,21.80
2023-07-16T08:58:25.387Z,21.70
2023-07-16T09:04:19.293Z,21.90
2023-07-16T09:10:14.357Z,21.90
2023-07-16T09:16:07.460Z,22.00
2023-07-16T09:22:01.544Z,22.00
2023-07-16T09:27:55.966Z,21.90
2023-07-16T09:34:13.129Z,22.20
2023-07-16T09:40:13.282Z,21.90
2023-07-16T09:46:15.155Z,22.20
2023-07-16T09:52:12.115Z,22.20
2023-07-16T09:58:14.816Z,22.10
2023-07-16T10:04:21.703Z,21.90
2023-07-16T10:10:17.056Z,21.80
2023-07-16T10:16:12.267Z,22.00
2023-07-16T10:22:07.346Z,22.30
2023-07-16T10:28:00.435Z,22.10
2023-07-16T10:34:06.381Z,22.00
2023-07-16T10:40:02.587Z,21.80
2023-07-16T10:45:55.775Z,21.70
2023-07-16T10:51:48.848Z,21.70
2023-07-16T10:57:43.726Z,21.90
2023-07-16T11:03:37.906Z,22.10
2023-07-16T11:09:31.743Z,22.20
2023-07-16T11:15:35.428Z,22.50
2023-07-16T11:21:29.164Z,22.70
2023-07-16T11:27:24.308Z,22.90
2023-07-16T11:33:19.225Z,23.00
2023-07-16T11:39:13.826Z,23.10
2023-07-16T11:45:17.053Z,23.30
2023-07-16T11:51:11.996Z,23.50
2023-07-16T11:57:06.290Z,23.20
2023-07-16T12:02:59.970Z,23.10
2023-07-16T12:08:56.163Z,23.10
2023-07-16T12:14:49.288Z,23.20
2023-07-16T12:20:42.336Z,23.20
2023-07-16T12:26:37.210Z,22.90
2023-07-16T12:32:30.749Z,23.20
2023-07-16T12:38:24.901Z,23.10
2023-07-16T12:44:19.368Z,23.20
2023-07-16T12:50:12.964Z,23.20
2023-07-16T12:56:06.224Z,23.30
2023-07-16T13:02:00.675Z,23.30
2023-07-16T13:07:54.117Z,23.50
2023-07-16T13:13:47.579Z,23.30
2023-07-16T13:19:42.186Z,23.40
2023-07-16T13:25:35.513Z,23.60
2023-07-16T13:31:29.092Z,23.80
2023-07-16T13:37:23.965Z,23.90
2023-07-16T13:43:17.043Z,23.50
2023-07-16T13:49:10.091Z,23.80
2023-07-16T13:55:06.136Z,23.50
2023-07-16T14:00:59.612Z,23.40
2023-07-16T14:06:55.744Z,23.40
2023-07-16T14:12:51.429Z,24.00
2023-07-16T14:18:44.958Z,23.90
2023-07-16T14:24:38.419Z,23.30
2023-07-16T14:30:33.314Z,23.10
2023-07-16T14:36:26.874Z,23.10
2023-07-16T14:42:20.353Z,23.10
2023-07-16T14:48:15.298Z,23.00
2023-07-16T14:54:08.886Z,23.00
2023-07-16T15:00:02.443Z,23.00
2023-07-16T15:05:59.738Z,22.90
2023-07-16T15:11:52.804Z,22.90
2023-07-16T15:17:46.389Z,23.10
2023-07-16T15:23:46.037Z,23.20
2023-07-16T15:29:39.595Z,23.50
2023-07-16T15:35:33.132Z,23.60
2023-07-16T15:41:30.221Z,23.70
2023-07-16T15:47:23.861Z,23.60
2023-07-16T15:53:17.511Z,23.50
2023-07-16T15:59:12.490Z,23.60
2023-07-16T16:05:07.584Z,23.70
2023-07-16T16:11:01.003Z,23.50
2023-07-16T16:17:06.688Z,23.50
2023-07-16T16:23:02.314Z,23.30
2023-07-16T16:28:55.389Z,23.10
2023-07-16T16:34:50.032Z,23.10
2023-07-16T16:40:44.286Z,23.00
2023-07-16T16:46:37.511Z,22.90
2023-07-16T16:52:32.591Z,22.80
2023-07-16T16:58:26.584Z,22.80
2023-07-16T17:04:19.776Z,22.80
2023-07-16T17:10:14.294Z,22.70
2023-07-16T17:16:07.785Z,22.70
2023-07-16T17:22:01.388Z,22.60
2023-07-16T17:27:55.833Z,22.60
2023-07-16T17:33:49.364Z,22.50
2023-07-16T17:39:42.445Z,22.50
2023-07-16T17:45:36.918Z,22.50
2023-07-16T17:51:29.937Z,22.50
2023-07-16T17:57:24.115Z,22.50
2023-07-16T18:03:18.709Z,22.40
2023-07-16T18:09:15.346Z,22.50
2023-07-16T18:15:09.856Z,22.50
2023-07-16T18:21:12.316Z,22.60
2023-07-16T18:27:12.823Z,22.50
2023-07-16T18:33:05.918Z,22.40
2023-07-16T18:39:00.828Z,22.40
2023-07-16T18:44:57.509Z,22.30
2023-07-16T18:50:51.912Z,22.30
2023-07-16T18:56:47.538Z,22.30
2023-07-16T19:02:40.718Z,22.20
2023-07-16T19:08:34.278Z,22.20
2023-07-16T19:14:29.319Z,22.10
2023-07-16T19:20:22.510Z,22.00
2023-07-16T19:26:16.585Z,21.90
2023-07-16T19:32:11.498Z,21.90
2023-07-16T19:38:05.005Z,21.80
2023-07-16T19:43:58.033Z,21.80
2023-07-16T19:49:53.109Z,21.80
2023-07-16T19:55:46.561Z,21.70
2023-07-16T20:01:40.212Z,21.70
2023-07-16T20:07:36.819Z,21.80
2023-07-16T20:13:30.645Z,21.70
2023-07-16T20:19:24.268Z,21.70
2023-07-16T20:25:20.442Z,21.70
2023-07-16T20:31:13.655Z,21.60
2023-07-16T20:37:08.041Z,21.50
2023-07-16T20:43:03.134Z,21.50
2023-07-16T20:48:56.140Z,21.50
2023-07-16T20:54:49.159Z,21.40
2023-07-16T21:00:44.157Z,21.40
2023-07-16T21:06:37.265Z,21.30
2023-07-16T21:12:31.009Z,21.30
2023-07-16T21:18:25.461Z,21.30
2023-07-16T21:24:19.148Z,21.20
2023-07-16T21:30:13.329Z,21.00
2023-07-16T21:36:09.564Z,20.90
2023-07-16T21:42:02.852Z,20.90
2023-07-16T21:47:56.658Z,21.00
2023-07-16T21:53:51.586Z,20.80
2023-07-16T21:59:44.785Z,20.90
2023-07-16T22:05:38.327Z,20.80
2023-07-16T22:11:33.386Z,20.80
2023-07-16T22:17:27.325Z,20.70
2023-07-16T22:23:20.851Z,20.70
2023-07-16T22:29:15.770Z,20.60
2023-07-16T22:35:09.321Z,20.70
2023-07-16T22:41:02.791Z,20.70
2023-07-16T22:46:57.654Z,20.70
2023-07-16T22:52:50.735Z,20.60
2023-07-16T22:58:44.128Z,20.50
2023-07-16T23:04:38.824Z,20.40
2023-07-16T23:10:32.215Z,20.20
2023-07-16T23:16:25.760Z,19.80
2023-07-16T23:22:20.512Z,19.70
2023-07-16T23:28:13.391Z,19.60
2023-07-16T23:34:06.749Z,19.80
2023-07-16T23:40:01.489Z,19.90
2023-07-16T23:45:54.867Z,20.00
2023-07-16T23:51:47.862Z,20.00
2023-07-16T23:57:42.690Z,20.00
